createdAt,value
2023-04-15T00:00:12.922Z,45
2023-04-15T00:02:43.645Z,43
2023-04-15T00:05:14.278Z,31
2023-04-15T00:07:45.035Z,33
2023-04-15T00:10:15.331Z,31
2023-04-15T00:12:45.724Z,28
2023-04-15T00:15:16.747Z,52
2023-04-15T00:17:47.415Z,54
2023-04-15T00:20:18.044Z,46
2023-04-15T00:22:49.442Z,31
2023-04-15T00:25:20.456Z,36
2023-04-15T00:27:51.619Z,31
2023-04-15T00:30:22.298Z,20
2023-04-15T00:32:53.181Z,20
2023-04-15T00:35:23.752Z,22
2023-04-15T00:37:54.473Z,19
2023-04-15T00:40:25.074Z,21
2023-04-15T00:42:55.742Z,24
2023-04-15T00:45:26.433Z,17
2023-04-15T00:47:57.614Z,23
2023-04-15T00:50:28.676Z,20
2023-04-15T00:52:59.332Z,21
2023-04-15T00:55:29.696Z,21
2023-04-15T00:58:00.430Z,21
2023-04-15T01:00:30.842Z,16
2023-04-15T01:03:01.896Z,13
2023-04-15T01:05:32.589Z,19
2023-04-15T01:08:03.534Z,27
2023-04-15T01:10:34.449Z,17
2023-04-15T01:13:05.001Z,19
2023-04-15T01:15:35.822Z,12
2023-04-15T01:18:06.678Z,12
2023-04-15T01:20:37.468Z,13
2023-04-15T01:23:07.977Z,17
2023-04-15T01:25:39.046Z,17
2023-04-15T01:28:09.768Z,13
2023-04-15T01:30:40.690Z,16
2023-04-15T01:33:11.468Z,8
2023-04-15T01:35:42.552Z,16
2023-04-15T01:38:12.942Z,12
2023-04-15T01:40:44.154Z,15
2023-04-15T01:43:14.999Z,11
2023-04-15T01:45:45.863Z,12
2023-04-15T01:48:17.052Z,8
2023-04-15T01:50:47.688Z,5
2023-04-15T01:53:18.643Z,8
2023-04-15T01:55:49.147Z,9
2023-04-15T01:58:20.098Z,11
2023-04-15T02:00:50.589Z,8
2023-04-15T02:03:22.207Z,11
2023-04-15T02:05:52.532Z,8
2023-04-15T02:08:23.400Z,8
2023-04-15T02:10:53.690Z,7
2023-04-15T02:13:24.288Z,5
2023-04-15T02:15:54.614Z,13
2023-04-15T02:18:25.499Z,8
2023-04-15T02:20:55.892Z,7
2023-04-15T02:23:26.059Z,7
2023-04-15T02:25:57.409Z,2
2023-04-15T02:28:29.070Z,4
2023-04-15T02:30:59.834Z,8
2023-04-15T02:33:28.947Z,7
2023-04-15T02:35:59.435Z,8
2023-04-15T02:38:31.237Z,8
2023-04-15T02:41:02.067Z,4
2023-04-15T02:43:32.768Z,5
2023-04-15T02:46:03.846Z,7
2023-04-15T02:48:34.990Z,5
2023-04-15T02:51:05.702Z,5
2023-04-15T02:53:34.888Z,5
2023-04-15T02:56:06.131Z,13
2023-04-15T02:58:37.167Z,8
2023-04-15T03:01:08.009Z,11
2023-04-15T03:03:39.003Z,7
2023-04-15T03:06:10.162Z,5
2023-04-15T03:08:41.284Z,5
2023-04-15T03:11:12.314Z,5
2023-04-15T03:13:43.105Z,11
2023-04-15T03:16:16.802Z,4
2023-04-15T03:18:47.648Z,7
2023-04-15T03:21:18.227Z,7
2023-04-15T03:23:49.110Z,4
2023-04-15T03:26:20.788Z,4
2023-04-15T03:28:52.664Z,5
2023-04-15T03:31:23.206Z,4
2023-04-15T03:33:54.264Z,8
2023-04-15T03:36:25.041Z,5
2023-04-15T03:38:59.244Z,1
2023-04-15T03:41:29.718Z,8
2023-04-15T03:44:00.160Z,11
2023-04-15T03:46:31.059Z,9
2023-04-15T03:49:02.168Z,9
2023-04-15T03:51:32.921Z,3
2023-04-15T03:54:03.681Z,5
2023-04-15T03:56:34.735Z,7
2023-04-15T03:59:05.691Z,7
2023-04-15T04:01:36.571Z,5
2023-04-15T04:04:07.673Z,4
2023-04-15T04:06:38.539Z,7
2023-04-15T04:09:09.660Z,5
2023-04-15T04:11:40.049Z,8
2023-04-15T04:14:10.332Z,5
2023-04-15T04:16:41.498Z,7
2023-04-15T04:19:12.568Z,8
2023-04-15T04:21:43.107Z,7
2023-04-15T04:24:14.210Z,8
2023-04-15T04:26:45.104Z,7
2023-04-15T04:29:15.972Z,4
2023-04-15T04:31:46.918Z,8
2023-04-15T04:34:17.528Z,8
2023-04-15T04:36:48.795Z,8
2023-04-15T04:39:19.668Z,9
2023-04-15T04:41:50.468Z,8
2023-04-15T04:44:21.665Z,8
2023-04-15T04:46:52.233Z,7
2023-04-15T04:49:23.372Z,9
2023-04-15T04:51:53.965Z,9
2023-04-15T04:54:24.547Z,9
2023-04-15T04:56:55.285Z,12
2023-04-15T04:59:30.147Z,4
2023-04-15T05:02:00.743Z,13
2023-04-15T05:04:31.935Z,13
2023-04-15T05:07:02.881Z,8
2023-04-15T05:09:33.983Z,9
2023-04-15T05:12:04.389Z,11
2023-04-15T05:14:34.729Z,8
2023-04-15T05:17:04.268Z,13
2023-04-15T05:19:35.031Z,13
2023-04-15T05:22:05.370Z,8
2023-04-15T05:24:36.216Z,11
2023-04-15T05:27:07.258Z,13
2023-04-15T05:29:38.275Z,13
2023-04-15T05:32:08.876Z,9
2023-04-15T05:34:40.096Z,16
2023-04-15T05:37:10.656Z,12
2023-04-15T05:39:41.561Z,11
2023-04-15T05:42:12.521Z,15
2023-04-15T05:44:43.587Z,13
2023-04-15T05:47:14.877Z,15
2023-04-15T05:49:46.814Z,22
2023-04-15T05:52:17.471Z,13
2023-04-15T05:54:48.226Z,20
2023-04-15T05:57:18.849Z,17
2023-04-15T05:59:49.680Z,13
2023-04-15T06:02:20.604Z,17
2023-04-15T06:04:51.480Z,14
2023-04-15T06:07:22.088Z,16
2023-04-15T06:09:53.026Z,13
2023-04-15T06:12:23.334Z,10
2023-04-15T06:14:53.729Z,8
2023-04-15T06:17:24.356Z,11
2023-04-15T06:19:55.032Z,15
2023-04-15T06:22:25.559Z,54
2023-04-15T06:24:56.172Z,21
2023-04-15T06:27:26.700Z,34
2023-04-15T06:29:57.050Z,20
2023-04-15T06:32:27.720Z,9
2023-04-15T06:34:58.732Z,9
2023-04-15T06:37:29.324Z,64
2023-04-15T06:39:59.828Z,7
2023-04-15T06:42:29.272Z,13
2023-04-15T06:45:00.183Z,5
2023-04-15T06:47:30.672Z,11
2023-04-15T06:50:01.171Z,7
2023-04-15T06:52:32.063Z,9
2023-04-15T06:55:03.794Z,19
2023-04-15T06:57:35.117Z,9
2023-04-15T07:00:05.807Z,9
2023-04-15T07:02:36.714Z,12
2023-04-15T07:05:07.178Z,11
2023-04-15T07:07:37.453Z,11
2023-04-15T07:10:08.192Z,15
2023-04-15T07:12:38.702Z,7
2023-04-15T07:15:09.242Z,8
2023-04-15T07:17:40.211Z,7
2023-04-15T07:20:10.885Z,12
2023-04-15T07:22:41.592Z,8
2023-04-15T07:25:12.003Z,12
2023-04-15T07:27:42.867Z,8
2023-04-15T07:30:13.580Z,5
2023-04-15T07:32:44.053Z,7
2023-04-15T07:35:14.882Z,11
2023-04-15T07:37:45.627Z,5
2023-04-15T07:40:16.345Z,7
2023-04-15T07:42:46.933Z,5
2023-04-15T07:45:17.406Z,9
2023-04-15T07:47:47.940Z,9
2023-04-15T07:50:18.511Z,5
2023-04-15T07:52:48.900Z,7
2023-04-15T07:55:19.152Z,8
2023-04-15T07:57:49.885Z,11
2023-04-15T08:00:20.636Z,6
2023-04-15T08:02:51.616Z,4
2023-04-15T08:05:22.503Z,7
2023-04-15T08:07:53.254Z,7
2023-04-15T08:10:23.894Z,11
2023-04-15T08:12:54.341Z,7
2023-04-15T08:15:24.736Z,9
2023-04-15T08:17:55.383Z,7
2023-04-15T08:20:26.083Z,7
2023-04-15T08:22:56.750Z,5
2023-04-15T08:25:27.875Z,8
2023-04-15T08:27:58.060Z,5
2023-04-15T08:30:28.559Z,5
2023-04-15T08:32:59.274Z,8
2023-04-15T08:35:27.840Z,11
2023-04-15T08:37:58.203Z,7
2023-04-15T08:40:29.155Z,21
2023-04-15T08:43:00.278Z,25
2023-04-15T08:45:30.844Z,9
2023-04-15T08:48:01.780Z,5
2023-04-15T08:50:32.226Z,12
2023-04-15T08:53:03.138Z,5
2023-04-15T08:55:33.277Z,5
2023-04-15T08:58:04.119Z,5
2023-04-15T09:00:35.132Z,4
2023-04-15T09:03:05.805Z,8
2023-04-15T09:05:36.146Z,5
2023-04-15T09:08:06.712Z,5
2023-04-15T09:10:36.848Z,4
2023-04-15T09:13:08.764Z,4
2023-04-15T09:15:39.018Z,7
2023-04-15T09:18:09.051Z,11
2023-04-15T09:20:39.510Z,13
2023-04-15T09:23:10.175Z,5
2023-04-15T09:25:40.594Z,8
2023-04-15T09:28:10.658Z,4
2023-04-15T09:30:41.586Z,5
2023-04-15T09:33:11.788Z,8
2023-04-15T09:35:41.991Z,5
2023-04-15T09:38:12.220Z,5
2023-04-15T09:40:43.560Z,4
2023-04-15T09:43:14.183Z,7
2023-04-15T09:45:44.251Z,8
2023-04-15T09:48:14.917Z,5
2023-04-15T09:50:45.863Z,7
2023-04-15T09:53:16.185Z,4
2023-04-15T09:55:47.053Z,4
2023-04-15T09:58:20.321Z,8
2023-04-15T10:00:50.578Z,5
2023-04-15T10:03:22.169Z,4
2023-04-15T10:05:52.371Z,5
2023-04-15T10:08:22.867Z,8
2023-04-15T10:10:53.566Z,9
2023-04-15T10:13:24.356Z,9
2023-04-15T10:15:54.728Z,17
2023-04-15T10:18:25.038Z,11
2023-04-15T10:20:55.371Z,9
2023-04-15T10:23:26.138Z,12
2023-04-15T10:25:56.781Z,4
2023-04-15T10:28:27.492Z,9
2023-04-15T10:30:58.415Z,7
2023-04-15T10:33:29.279Z,4
2023-04-15T10:36:00.946Z,8
2023-04-15T10:38:31.426Z,8
2023-04-15T10:41:02.290Z,8
2023-04-15T10:43:32.793Z,11
2023-04-15T10:46:02.744Z,4
2023-04-15T10:48:33.457Z,7
2023-04-15T10:51:03.922Z,8
2023-04-15T10:53:34.225Z,7
2023-04-15T10:56:04.635Z,17
2023-04-15T10:58:35.198Z,20
2023-04-15T11:01:05.895Z,13
2023-04-15T11:03:36.501Z,9
2023-04-15T11:06:07.023Z,12
2023-04-15T11:08:37.880Z,13
2023-04-15T11:11:08.288Z,11
2023-04-15T11:13:38.947Z,12
2023-04-15T11:16:09.315Z,9
2023-04-15T11:18:39.848Z,7
2023-04-15T11:21:10.511Z,5
2023-04-15T11:23:41.201Z,15
2023-04-15T11:26:11.747Z,16
2023-04-15T11:28:42.282Z,17
2023-04-15T11:31:13.319Z,5
2023-04-15T11:33:43.840Z,11
2023-04-15T11:36:14.169Z,7
2023-04-15T11:38:44.906Z,8
2023-04-15T11:41:15.408Z,5
2023-04-15T11:43:46.162Z,10
2023-04-15T11:46:25.463Z,0
2023-04-15T11:49:02.974Z,4
2023-04-15T11:51:33.339Z,12
2023-04-15T11:54:04.442Z,12
2023-04-15T11:56:36.260Z,7
2023-04-15T11:59:10.221Z,5
2023-04-15T12:01:40.795Z,7
2023-04-15T12:04:15.807Z,5
2023-04-15T12:06:45.927Z,8
2023-04-15T12:09:17.802Z,7
2023-04-15T12:11:50.167Z,14
2023-04-15T12:14:20.550Z,13
2023-04-15T12:16:51.826Z,13
2023-04-15T12:19:23.315Z,4
2023-04-15T12:21:53.824Z,13
2023-04-15T12:32:24.221Z,7
2023-04-15T12:45:35.725Z,9
2023-04-15T12:48:07.556Z,21
2023-04-15T12:50:44.129Z,5
2023-04-15T12:53:16.160Z,9
2023-04-15T12:55:47.710Z,11
2023-04-15T12:58:22.805Z,9
2023-04-15T13:00:57.228Z,15
2023-04-15T13:03:30.497Z,12
2023-04-15T13:06:00.946Z,15
2023-04-15T13:08:31.388Z,8
2023-04-15T13:11:08.037Z,0
2023-04-15T13:13:38.834Z,5
2023-04-15T13:16:09.340Z,15
2023-04-15T13:18:41.918Z,22
2023-04-15T13:21:17.532Z,20
2023-04-15T13:23:49.246Z,15
2023-04-15T13:26:19.543Z,7
2023-04-15T13:28:52.358Z,4
2023-04-15T13:31:24.576Z,10
2023-04-15T13:33:59.473Z,11
2023-04-15T13:36:32.034Z,7
2023-04-15T13:39:02.565Z,4
2023-04-15T13:41:33.413Z,5
2023-04-15T13:44:07.796Z,3
2023-04-15T13:46:40.928Z,7
2023-04-15T13:49:11.585Z,4
2023-04-15T13:51:42.427Z,9
2023-04-15T13:54:16.243Z,9
2023-04-15T13:56:56.486Z,8
2023-04-15T13:59:30.957Z,7
2023-04-15T14:02:04.872Z,9
2023-04-15T14:04:35.794Z,7
2023-04-15T14:07:06.379Z,9
2023-04-15T14:09:42.887Z,8
2023-04-15T14:12:07.355Z,7
2023-04-15T14:14:43.974Z,34
2023-04-15T14:17:14.697Z,9
2023-04-15T14:19:45.503Z,5
2023-04-15T14:22:16.145Z,7
2023-04-15T14:24:46.763Z,12
2023-04-15T14:27:17.857Z,5
2023-04-15T14:29:50.346Z,3
2023-04-15T14:32:25.749Z,2
2023-04-15T14:34:56.698Z,5
2023-04-15T14:37:27.216Z,4
2023-04-15T14:39:59.877Z,4
2023-04-15T14:42:30.736Z,1
2023-04-15T14:45:02.813Z,4
2023-04-15T14:47:39.189Z,4
2023-04-15T14:50:09.940Z,8
2023-04-15T14:52:40.544Z,5
2023-04-15T14:55:11.387Z,4
2023-04-15T14:57:42.448Z,4
2023-04-15T15:00:16.122Z,7
2023-04-15T15:02:45.233Z,8
2023-04-15T15:05:15.919Z,5
2023-04-15T15:07:46.321Z,9
2023-04-15T15:10:17.356Z,7
2023-04-15T15:12:47.755Z,5
2023-04-15T15:15:28.392Z,9
2023-04-15T15:17:49.302Z,7
2023-04-15T15:20:20.039Z,7
2023-04-15T15:22:50.802Z,7
2023-04-15T15:25:21.631Z,7
2023-04-15T15:27:52.417Z,8
2023-04-15T15:30:23.105Z,4
2023-04-15T15:32:54.181Z,6
2023-04-15T15:35:24.866Z,8
2023-04-15T15:37:56.754Z,8
2023-04-15T15:40:27.515Z,8
2023-04-15T15:42:57.945Z,7
2023-04-15T15:45:28.852Z,5
2023-04-15T15:47:59.960Z,7
2023-04-15T15:50:30.332Z,9
2023-04-15T15:53:00.990Z,7
2023-04-15T15:55:31.456Z,5
2023-04-15T15:58:02.020Z,5
2023-04-15T16:00:33.229Z,7
2023-04-15T16:03:06.478Z,7
2023-04-15T16:05:35.456Z,11
2023-04-15T16:08:06.025Z,5
2023-04-15T16:10:36.722Z,5
2023-04-15T16:13:07.756Z,7
2023-04-15T16:15:38.383Z,5
2023-04-15T16:18:09.146Z,7
2023-04-15T16:20:39.758Z,9
2023-04-15T16:23:10.250Z,8
2023-04-15T16:25:40.667Z,8
2023-04-15T16:28:26.653Z,4
2023-04-15T16:30:51.177Z,4
2023-04-15T16:33:21.652Z,7
2023-04-15T16:35:52.460Z,5
2023-04-15T16:38:23.156Z,5
2023-04-15T16:40:53.954Z,7
2023-04-15T16:43:24.589Z,7
2023-04-15T16:45:55.236Z,4
2023-04-15T16:48:26.162Z,8
2023-04-15T16:50:57.008Z,5
2023-04-15T16:53:27.376Z,11
2023-04-15T16:55:58.252Z,9
2023-04-15T16:58:28.806Z,8
2023-04-15T17:01:00.012Z,11
2023-04-15T17:03:30.815Z,7
2023-04-15T17:06:00.945Z,11
2023-04-15T17:08:31.553Z,7
2023-04-15T17:11:01.957Z,9
2023-04-15T17:13:32.330Z,8
2023-04-15T17:16:03.198Z,8
2023-04-15T17:18:33.673Z,8
2023-04-15T17:21:04.319Z,5
2023-04-15T17:23:34.809Z,7
2023-04-15T17:26:05.355Z,7
2023-04-15T17:28:37.134Z,9
2023-04-15T17:31:10.982Z,9
2023-04-15T17:33:50.605Z,8
2023-04-15T17:36:12.267Z,8
2023-04-15T17:38:43.112Z,12
2023-04-15T17:41:14.570Z,8
2023-04-15T17:43:53.991Z,7
2023-04-15T17:49:20.725Z,15
2023-04-15T17:51:50.790Z,35
2023-04-15T17:54:21.513Z,76
2023-04-15T17:56:50.209Z,92
2023-04-15T17:59:20.871Z,105
2023-04-15T18:01:51.843Z,71
2023-04-15T18:04:26.612Z,46
2023-04-15T18:06:55.667Z,36
2023-04-15T18:09:26.646Z,35
2023-04-15T18:11:56.673Z,21
2023-04-15T18:14:34.887Z,32
2023-04-15T18:17:04.848Z,37
2023-04-15T18:19:35.116Z,48
2023-04-15T18:22:05.610Z,52
2023-04-15T18:24:35.806Z,38
2023-04-15T18:27:06.387Z,30
2023-04-15T18:29:37.042Z,16
2023-04-15T18:32:07.848Z,12
2023-04-15T18:34:38.262Z,16
2023-04-15T18:37:08.663Z,15
2023-04-15T18:39:38.767Z,24
2023-04-15T18:42:09.214Z,25
2023-04-15T18:44:39.692Z,15
2023-04-15T18:47:10.393Z,16
2023-04-15T18:49:40.915Z,20
2023-04-15T18:52:14.190Z,15
2023-04-15T18:54:44.479Z,16
2023-04-15T18:57:14.727Z,17
2023-04-15T18:59:43.478Z,16
2023-04-15T19:02:17.923Z,16
2023-04-15T19:04:49.089Z,25
2023-04-15T19:07:19.212Z,24
2023-04-15T19:09:55.757Z,26
2023-04-15T19:12:26.398Z,32
2023-04-15T19:14:56.800Z,33
2023-04-15T19:17:25.807Z,27
2023-04-15T19:19:54.689Z,26
2023-04-15T19:22:25.235Z,29
2023-04-15T19:24:55.444Z,29
2023-04-15T19:27:26.418Z,36
2023-04-15T19:29:56.472Z,25
2023-04-15T19:32:27.166Z,41
2023-04-15T19:34:57.590Z,40
2023-04-15T19:37:28.219Z,55
2023-04-15T19:40:03.024Z,48
2023-04-15T19:42:37.576Z,36
2023-04-15T19:45:08.087Z,39
2023-04-15T19:47:42.675Z,34
2023-04-15T19:50:12.630Z,45
2023-04-15T19:52:43.067Z,50
2023-04-15T19:55:14.702Z,35
2023-04-15T19:57:46.844Z,30
2023-04-15T20:00:17.226Z,34
2023-04-15T20:02:47.927Z,59
2023-04-15T20:05:18.338Z,55
2023-04-15T20:07:48.300Z,56
2023-04-15T20:10:18.647Z,32
2023-04-15T20:12:51.914Z,29
2023-04-15T20:15:24.235Z,24
2023-04-15T20:17:54.403Z,24
2023-04-15T20:20:24.807Z,27
2023-04-15T20:22:55.295Z,53
2023-04-15T20:25:25.693Z,56
2023-04-15T20:27:56.022Z,60
2023-04-15T20:30:26.676Z,56
2023-04-15T20:32:57.537Z,54
2023-04-15T20:35:27.950Z,48
2023-04-15T20:37:58.822Z,43
2023-04-15T20:40:29.617Z,50
2023-04-15T20:43:00.469Z,44
2023-04-15T20:45:30.870Z,48
2023-04-15T20:48:01.274Z,32
2023-04-15T20:50:32.433Z,28
2023-04-15T20:53:02.881Z,31
2023-04-15T20:55:33.213Z,28
2023-04-15T20:58:03.747Z,32
2023-04-15T21:00:35.002Z,24
2023-04-15T21:03:05.871Z,35
2023-04-15T21:05:36.418Z,21
2023-04-15T21:08:07.076Z,27
2023-04-15T21:10:37.202Z,24
2023-04-15T21:13:07.752Z,25
2023-04-15T21:15:38.412Z,24
2023-04-15T21:18:09.276Z,22
2023-04-15T21:20:40.025Z,24
2023-04-15T21:23:12.977Z,24
2023-04-15T21:25:41.567Z,25
2023-04-15T21:28:12.680Z,34
2023-04-15T21:30:43.034Z,32
2023-04-15T21:33:13.862Z,21
2023-04-15T21:35:44.708Z,17
2023-04-15T21:38:15.412Z,23
2023-04-15T21:40:46.034Z,20
2023-04-15T21:43:16.397Z,21
2023-04-15T21:45:49.247Z,27
2023-04-15T21:48:17.875Z,21
2023-04-15T21:50:48.889Z,30
2023-04-15T21:53:19.679Z,20
2023-04-15T21:55:54.888Z,20
2023-04-15T21:58:25.513Z,20
2023-04-15T22:00:56.342Z,21
2023-04-15T22:03:27.336Z,24
2023-04-15T22:05:58.070Z,36
2023-04-15T22:08:29.053Z,34
2023-04-15T22:10:59.730Z,40
2023-04-15T22:13:30.271Z,35
2023-04-15T22:16:01.046Z,31
2023-04-15T22:21:02.514Z,37
2023-04-15T22:23:37.285Z,32
2023-04-15T22:26:08.404Z,41
2023-04-15T22:28:39.092Z,45
2023-04-15T22:31:13.182Z,43
2023-04-15T22:33:50.406Z,40
2023-04-15T22:36:20.898Z,45
2023-04-15T22:38:51.335Z,48
2023-04-15T22:41:21.600Z,46
2023-04-15T22:43:52.559Z,39
2023-04-15T22:46:22.794Z,38
2023-04-15T22:48:53.491Z,36
2023-04-15T22:51:24.340Z,39
2023-04-15T22:53:55.193Z,49
2023-04-15T22:56:25.770Z,45
2023-04-15T22:58:56.668Z,48
2023-04-15T23:01:27.077Z,45
2023-04-15T23:04:03.422Z,47
2023-04-15T23:06:28.278Z,44
2023-04-15T23:08:57.374Z,48
2023-04-15T23:11:27.915Z,54
2023-04-15T23:13:58.631Z,48
2023-04-15T23:16:29.295Z,46
2023-04-15T23:19:00.009Z,40
2023-04-15T23:21:30.641Z,35
2023-04-15T23:24:01.097Z,35
2023-04-15T23:26:31.784Z,45
2023-04-15T23:29:02.461Z,48
2023-04-15T23:31:33.135Z,52
2023-04-15T23:34:04.149Z,52
2023-04-15T23:36:34.841Z,45
2023-04-15T23:39:05.775Z,47
2023-04-15T23:41:36.817Z,47
2023-04-15T23:44:07.808Z,45
2023-04-15T23:46:38.871Z,52
2023-04-15T23:49:09.793Z,45
2023-04-15T23:51:40.625Z,55
2023-04-15T23:54:11.627Z,45
2023-04-15T23:56:42.384Z,45
2023-04-15T23:59:13.133Z,41
